sensor_id;sensor_type;location;lat;lon;timestamp;temperature;humidity
3332;DHT22;1678;50.94845400;5.30809100;2022-10-04T00:02:23;11.00;99.90
3332;DHT22;1678;50.94845400;5.30809100;2022-10-04T00:04:55;11.10;99.90
3332;DHT22;1678;50.94845400;5.30809100;2022-10-04T00:07:28;11.10;99.90
3332;DHT22;1678;50.94845400;5.30809100;2022-10-04T00:10:02;11.00;99.90
3332;DHT22;1678;50.94845400;5.30809100;2022-10-04T00:12:36;11.00;99.90
3332;DHT22;1678;50.94845400;5.30809100;2022-10-04T00:15:18;11.00;99.90
3332;DHT22;1678;50.94845400;5.30809100;2022-10-04T00:18:00;11.00;99.90
3332;DHT22;1678;50.94845400;5.30809100;2022-10-04T00:20:55;11.00;99.90
3332;DHT22;1678;50.94845400;5.30809100;2022-10-04T00:23:29;11.00;99.90
3332;DHT22;1678;50.94845400;5.30809100;2022-10-04T00:26:15;10.90;99.90
3332;DHT22;1678;50.94845400;5.30809100;2022-10-04T00:29:29;10.80;99.90
3332;DHT22;1678;50.94845400;5.30809100;2022-10-04T00:32:24;10.70;99.90
3332;DHT22;1678;50.94845400;5.30809100;2022-10-04T00:34:53;10.80;99.90
3332;DHT22;1678;50.94845400;5.30809100;2022-10-04T00:37:22;10.70;99.90
3332;DHT22;1678;50.94845400;5.30809100;2022-10-04T00:40:00;10.70;99.90
3332;DHT22;1678;50.94845400;5.30809100;2022-10-04T00:42:42;10.60;99.90
3332;DHT22;1678;50.94845400;5.30809100;2022-10-04T00:45:25;10.50;99.90
3332;DHT22;1678;50.94845400;5.30809100;2022-10-04T00:51:01;10.40;99.90
3332;DHT22;1678;50.94845400;5.30809100;2022-10-04T00:53:44;10.40;99.90
3332;DHT22;1678;50.94845400;5.30809100;2022-10-04T00:56:18;10.40;99.90
3332;DHT22;1678;50.94845400;5.30809100;2022-10-04T00:59:08;10.30;99.90
3332;DHT22;1678;50.94845400;5.30809100;2022-10-04T01:01:42;10.20;99.90
3332;DHT22;1678;50.94845400;5.30809100;2022-10-04T01:04:22;10.20;99.90
3332;DHT22;1678;50.94845400;5.30809100;2022-10-04T01:06:51;10.20;99.90
3332;DHT22;1678;50.94845400;5.30809100;2022-10-04T01:09:20;10.10;99.90
3332;DHT22;1678;50.94845400;5.30809100;2022-10-04T01:11:56;10.10;99.90
3332;DHT22;1678;50.94845400;5.30809100;2022-10-04T01:14:37;10.10;99.90
3332;DHT22;1678;50.94845400;5.30809100;2022-10-04T01:17:08;10.00;99.90
3332;DHT22;1678;50.94845400;5.30809100;2022-10-04T01:19:37;10.00;99.90
3332;DHT22;1678;50.94845400;5.30809100;2022-10-04T01:22:12;9.90;99.90
3332;DHT22;1678;50.94845400;5.30809100;2022-10-04T01:24:43;10.00;99.90
3332;DHT22;1678;50.94845400;5.30809100;2022-10-04T01:27:34;9.80;99.90
3332;DHT22;1678;50.94845400;5.30809100;2022-10-04T01:30:04;9.80;99.90
3332;DHT22;1678;50.94845400;5.30809100;2022-10-04T01:32:37;9.80;99.90
3332;DHT22;1678;50.94845400;5.30809100;2022-10-04T01:35:07;9.70;99.90
3332;DHT22;1678;50.94845400;5.30809100;2022-10-04T01:37:36;9.70;99.90
3332;DHT22;1678;50.94845400;5.30809100;2022-10-04T01:40:08;9.60;99.90
3332;DHT22;1678;50.94845400;5.30809100;2022-10-04T01:42:41;9.60;99.90
3332;DHT22;1678;50.94845400;5.30809100;2022-10-04T01:45:17;9.70;99.90
3332;DHT22;1678;50.94845400;5.30809100;2022-10-04T01:47:50;9.70;99.90
3332;DHT22;1678;50.94845400;5.30809100;2022-10-04T01:50:24;9.70;99.90
3332;DHT22;1678;50.94845400;5.30809100;2022-10-04T01:52:56;9.70;99.90
3332;DHT22;1678;50.94845400;5.30809100;2022-10-04T01:55:31;9.70;99.90
3332;DHT22;1678;50.94845400;5.30809100;2022-10-04T01:58:07;9.70;99.90
3332;DHT22;1678;50.94845400;5.30809100;2022-10-04T02:00:37;9.60;99.90
3332;DHT22;1678;50.94845400;5.30809100;2022-10-04T02:03:11;9.60;99.90
3332;DHT22;1678;50.94845400;5.30809100;2022-10-04T02:05:42;9.60;99.90
3332;DHT22;1678;50.94845400;5.30809100;2022-10-04T02:08:15;9.50;99.90
3332;DHT22;1678;50.94845400;5.30809100;2022-10-04T02:10:48;9.60;99.90
3332;DHT22;1678;50.94845400;5.30809100;2022-10-04T02:13:17;9.60;99.90
3332;DHT22;1678;50.94845400;5.30809100;2022-10-04T02:15:47;9.50;99.90
3332;DHT22;1678;50.94845400;5.30809100;2022-10-04T02:18:18;9.50;99.90
3332;DHT22;1678;50.94845400;5.30809100;2022-10-04T02:20:48;9.50;99.90
3332;DHT22;1678;50.94845400;5.30809100;2022-10-04T02:23:18;9.50;99.90
3332;DHT22;1678;50.94845400;5.30809100;2022-10-04T02:25:48;9.50;99.90
3332;DHT22;1678;50.94845400;5.30809100;2022-10-04T02:28:17;9.40;99.90
3332;DHT22;1678;50.94845400;5.30809100;2022-10-04T02:30:48;9.40;99.90
3332;DHT22;1678;50.94845400;5.30809100;2022-10-04T02:33:31;9.50;99.90
3332;DHT22;1678;50.94845400;5.30809100;2022-10-04T02:36:00;9.50;99.90
3332;DHT22;1678;50.94845400;5.30809100;2022-10-04T02:38:33;9.30;99.90
3332;DHT22;1678;50.94845400;5.30809100;2022-10-04T02:41:10;9.40;99.90
3332;DHT22;1678;50.94845400;5.30809100;2022-10-04T02:43:44;9.40;99.90
3332;DHT22;1678;50.94845400;5.30809100;2022-10-04T02:46:16;9.40;99.90
3332;DHT22;1678;50.94845400;5.30809100;2022-10-04T02:48:46;9.30;99.90
3332;DHT22;1678;50.94845400;5.30809100;2022-10-04T02:51:22;9.30;99.90
3332;DHT22;1678;50.94845400;5.30809100;2022-10-04T02:53:59;9.30;99.90
3332;DHT22;1678;50.94845400;5.30809100;2022-10-04T02:56:31;9.30;99.90
3332;DHT22;1678;50.94845400;5.30809100;2022-10-04T02:59:01;9.20;99.90
3332;DHT22;1678;50.94845400;5.30809100;2022-10-04T03:01:39;9.20;99.90
3332;DHT22;1678;50.94845400;5.30809100;2022-10-04T03:04:11;9.10;99.90
3332;DHT22;1678;50.94845400;5.30809100;2022-10-04T03:06:42;9.10;99.90
3332;DHT22;1678;50.94845400;5.30809100;2022-10-04T03:09:13;9.10;99.90
3332;DHT22;1678;50.94845400;5.30809100;2022-10-04T03:11:43;9.10;99.90
3332;DHT22;1678;50.94845400;5.30809100;2022-10-04T03:14:15;9.00;99.90
3332;DHT22;1678;50.94845400;5.30809100;2022-10-04T03:16:49;8.90;99.90
3332;DHT22;1678;50.94845400;5.30809100;2022-10-04T03:19:20;8.80;99.90
3332;DHT22;1678;50.94845400;5.30809100;2022-10-04T03:21:51;8.80;99.90
3332;DHT22;1678;50.94845400;5.30809100;2022-10-04T03:24:22;8.70;99.90
3332;DHT22;1678;50.94845400;5.30809100;2022-10-04T03:26:54;8.70;99.90
3332;DHT22;1678;50.94845400;5.30809100;2022-10-04T03:29:25;8.60;99.90
3332;DHT22;1678;50.94845400;5.30809100;2022-10-04T03:31:55;8.60;99.90
3332;DHT22;1678;50.94845400;5.30809100;2022-10-04T03:34:26;8.60;99.90
3332;DHT22;1678;50.94845400;5.30809100;2022-10-04T03:36:56;8.60;99.90
3332;DHT22;1678;50.94845400;5.30809100;2022-10-04T03:39:27;8.50;99.90
3332;DHT22;1678;50.94845400;5.30809100;2022-10-04T03:42:01;8.50;99.90
3332;DHT22;1678;50.94845400;5.30809100;2022-10-04T03:44:31;8.60;99.90
3332;DHT22;1678;50.94845400;5.30809100;2022-10-04T03:47:00;8.60;99.90
3332;DHT22;1678;50.94845400;5.30809100;2022-10-04T03:49:32;8.70;99.90
3332;DHT22;1678;50.94845400;5.30809100;2022-10-04T03:52:03;8.80;99.90
3332;DHT22;1678;50.94845400;5.30809100;2022-10-04T03:54:32;8.80;99.90
3332;DHT22;1678;50.94845400;5.30809100;2022-10-04T03:57:05;8.80;99.90
3332;DHT22;1678;50.94845400;5.30809100;2022-10-04T03:59:34;8.90;99.90
3332;DHT22;1678;50.94845400;5.30809100;2022-10-04T04:02:08;8.90;99.90
3332;DHT22;1678;50.94845400;5.30809100;2022-10-04T04:04:44;8.90;99.90
3332;DHT22;1678;50.94845400;5.30809100;2022-10-04T04:07:19;8.90;99.90
3332;DHT22;1678;50.94845400;5.30809100;2022-10-04T04:09:51;8.90;99.90
3332;DHT22;1678;50.94845400;5.30809100;2022-10-04T04:12:25;8.90;99.90
3332;DHT22;1678;50.94845400;5.30809100;2022-10-04T04:15:00;9.00;99.90
3332;DHT22;1678;50.94845400;5.30809100;2022-10-04T04:17:38;9.20;99.90
3332;DHT22;1678;50.94845400;5.30809100;2022-10-04T04:20:24;9.30;99.90
3332;DHT22;1678;50.94845400;5.30809100;2022-10-04T04:22:59;9.40;99.90
3332;DHT22;1678;50.94845400;5.30809100;2022-10-04T04:25:29;9.50;99.90
3332;DHT22;1678;50.94845400;5.30809100;2022-10-04T04:28:14;9.50;99.90
3332;DHT22;1678;50.94845400;5.30809100;2022-10-04T04:30:49;9.60;99.90
3332;DHT22;1678;50.94845400;5.30809100;2022-10-04T04:33:26;9.60;99.90
3332;DHT22;1678;50.94845400;5.30809100;2022-10-04T04:36:01;9.50;99.90
3332;DHT22;1678;50.94845400;5.30809100;2022-10-04T04:38:30;9.50;99.90
3332;DHT22;1678;50.94845400;5.30809100;2022-10-04T04:41:07;9.40;99.90
3332;DHT22;1678;50.94845400;5.30809100;2022-10-04T04:43:42;9.40;99.90
3332;DHT22;1678;50.94845400;5.30809100;2022-10-04T04:46:10;9.30;99.90
3332;DHT22;1678;50.94845400;5.30809100;2022-10-04T04:48:58;9.30;99.90
3332;DHT22;1678;50.94845400;5.30809100;2022-10-04T04:51:30;9.30;99.90
3332;DHT22;1678;50.94845400;5.30809100;2022-10-04T04:54:01;9.30;99.90
3332;DHT22;1678;50.94845400;5.30809100;2022-10-04T04:56:32;9.30;99.90
3332;DHT22;1678;50.94845400;5.30809100;2022-10-04T04:59:05;9.30;99.90
3332;DHT22;1678;50.94845400;5.30809100;2022-10-04T05:01:35;9.30;99.90
3332;DHT22;1678;50.94845400;5.30809100;2022-10-04T05:04:05;9.30;99.90
3332;DHT22;1678;50.94845400;5.30809100;2022-10-04T05:06:42;9.20;99.90
3332;DHT22;1678;50.94845400;5.30809100;2022-10-04T05:09:22;9.20;99.90
3332;DHT22;1678;50.94845400;5.30809100;2022-10-04T05:11:51;9.20;99.90
3332;DHT22;1678;50.94845400;5.30809100;2022-10-04T05:14:20;9.10;99.90
3332;DHT22;1678;50.94845400;5.30809100;2022-10-04T05:16:50;9.10;99.90
3332;DHT22;1678;50.94845400;5.30809100;2022-10-04T05:19:21;9.10;99.90
3332;DHT22;1678;50.94845400;5.30809100;2022-10-04T05:21:52;9.10;99.90
3332;DHT22;1678;50.94845400;5.30809100;2022-10-04T05:24:23;9.10;99.90
3332;DHT22;1678;50.94845400;5.30809100;2022-10-04T05:26:56;9.10;99.90
3332;DHT22;1678;50.94845400;5.30809100;2022-10-04T05:29:28;9.10;99.90
3332;DHT22;1678;50.94845400;5.30809100;2022-10-04T05:32:12;9.10;99.90
3332;DHT22;1678;50.94845400;5.30809100;2022-10-04T05:34:43;9.20;99.90
3332;DHT22;1678;50.94845400;5.30809100;2022-10-04T05:37:42;9.20;99.90
3332;DHT22;1678;50.94845400;5.30809100;2022-10-04T05:40:34;9.20;99.90
3332;DHT22;1678;50.94845400;5.30809100;2022-10-04T05:43:21;9.20;99.90
3332;DHT22;1678;50.94845400;5.30809100;2022-10-04T05:46:16;9.20;99.90
3332;DHT22;1678;50.94845400;5.30809100;2022-10-04T05:48:46;9.20;99.90
3332;DHT22;1678;50.94845400;5.30809100;2022-10-04T05:51:18;9.20;99.90
3332;DHT22;1678;50.94845400;5.30809100;2022-10-04T05:53:47;9.20;99.90
3332;DHT22;1678;50.94845400;5.30809100;2022-10-04T05:59:55;9.20;99.90
3332;DHT22;1678;50.94845400;5.30809100;2022-10-04T06:02:40;9.20;99.90
3332;DHT22;1678;50.94845400;5.30809100;2022-10-04T06:05:12;9.20;99.90
3332;DHT22;1678;50.94845400;5.30809100;2022-10-04T06:07:45;9.30;99.90
3332;DHT22;1678;50.94845400;5.30809100;2022-10-04T06:13:24;9.20;99.90
3332;DHT22;1678;50.94845400;5.30809100;2022-10-04T06:16:07;9.20;99.90
3332;DHT22;1678;50.94845400;5.30809100;2022-10-04T06:19:17;9.20;99.90
3332;DHT22;1678;50.94845400;5.30809100;2022-10-04T06:22:03;9.20;99.90
3332;DHT22;1678;50.94845400;5.30809100;2022-10-04T06:24:35;9.30;99.90
3332;DHT22;1678;50.94845400;5.30809100;2022-10-04T06:27:10;9.30;99.90
3332;DHT22;1678;50.94845400;5.30809100;2022-10-04T06:29:42;9.40;99.90
3332;DHT22;1678;50.94845400;5.30809100;2022-10-04T06:38:25;9.60;99.90
3332;DHT22;1678;50.94845400;5.30809100;2022-10-04T06:41:12;9.60;99.90
3332;DHT22;1678;50.94845400;5.30809100;2022-10-04T06:46:44;9.90;99.90
3332;DHT22;1678;50.94845400;5.30809100;2022-10-04T06:49:30;10.00;99.90
3332;DHT22;1678;50.94845400;5.30809100;2022-10-04T06:52:17;10.10;99.90
3332;DHT22;1678;50.94845400;5.30809100;2022-10-04T06:55:20;10.20;99.90
3332;DHT22;1678;50.94845400;5.30809100;2022-10-04T07:01:03;10.30;99.90
3332;DHT22;1678;50.94845400;5.30809100;2022-10-04T07:03:37;10.40;99.90
3332;DHT22;1678;50.94845400;5.30809100;2022-10-04T07:06:07;10.30;99.90
3332;DHT22;1678;50.94845400;5.30809100;2022-10-04T07:08:44;10.40;99.90
3332;DHT22;1678;50.94845400;5.30809100;2022-10-04T07:11:16;10.50;99.90
3332;DHT22;1678;50.94845400;5.30809100;2022-10-04T07:13:51;10.50;99.90
3332;DHT22;1678;50.94845400;5.30809100;2022-10-04T07:16:28;10.60;99.90
3332;DHT22;1678;50.94845400;5.30809100;2022-10-04T07:19:06;10.50;99.90
3332;DHT22;1678;50.94845400;5.30809100;2022-10-04T07:21:38;10.50;99.90
3332;DHT22;1678;50.94845400;5.30809100;2022-10-04T07:24:19;10.40;99.90
3332;DHT22;1678;50.94845400;5.30809100;2022-10-04T07:26:52;10.40;99.90
3332;DHT22;1678;50.94845400;5.30809100;2022-10-04T07:29:26;10.40;99.90
3332;DHT22;1678;50.94845400;5.30809100;2022-10-04T07:32:05;10.40;99.90
3332;DHT22;1678;50.94845400;5.30809100;2022-10-04T07:34:39;10.50;99.90
3332;DHT22;1678;50.94845400;5.30809100;2022-10-04T07:37:11;10.60;99.90
3332;DHT22;1678;50.94845400;5.30809100;2022-10-04T07:39:47;10.80;99.90
3332;DHT22;1678;50.94845400;5.30809100;2022-10-04T07:42:28;10.90;99.90
3332;DHT22;1678;50.94845400;5.30809100;2022-10-04T07:45:04;11.00;99.90
3332;DHT22;1678;50.94845400;5.30809100;2022-10-04T07:47:36;11.20;99.90
3332;DHT22;1678;50.94845400;5.30809100;2022-10-04T07:50:22;11.20;99.90
3332;DHT22;1678;50.94845400;5.30809100;2022-10-04T07:52:54;11.20;99.90
3332;DHT22;1678;50.94845400;5.30809100;2022-10-04T07:55:31;11.40;99.90
3332;DHT22;1678;50.94845400;5.30809100;2022-10-04T07:58:13;11.50;99.90
3332;DHT22;1678;50.94845400;5.30809100;2022-10-04T08:00:47;11.50;99.90
3332;DHT22;1678;50.94845400;5.30809100;2022-10-04T08:06:15;11.70;99.90
3332;DHT22;1678;50.94845400;5.30809100;2022-10-04T08:09:02;11.80;99.90
3332;DHT22;1678;50.94845400;5.30809100;2022-10-04T08:11:42;11.90;99.90
3332;DHT22;1678;50.94845400;5.30809100;2022-10-04T08:14:23;11.90;99.90
3332;DHT22;1678;50.94845400;5.30809100;2022-10-04T08:17:04;12.00;99.90
3332;DHT22;1678;50.94845400;5.30809100;2022-10-04T08:19:55;12.10;99.90
3332;DHT22;1678;50.94845400;5.30809100;2022-10-04T08:25:21;12.40;99.90
3332;DHT22;1678;50.94845400;5.30809100;2022-10-04T08:28:01;12.50;99.90
3332;DHT22;1678;50.94845400;5.30809100;2022-10-04T08:31:10;12.60;99.90
3332;DHT22;1678;50.94845400;5.30809100;2022-10-04T08:34:08;12.70;99.90
3332;DHT22;1678;50.94845400;5.30809100;2022-10-04T08:36:54;12.80;99.90
3332;DHT22;1678;50.94845400;5.30809100;2022-10-04T08:39:43;12.90;99.90
3332;DHT22;1678;50.94845400;5.30809100;2022-10-04T08:42:44;12.90;99.90
3332;DHT22;1678;50.94845400;5.30809100;2022-10-04T08:45:49;13.00;99.90
3332;DHT22;1678;50.94845400;5.30809100;2022-10-04T08:51:53;13.10;99.90
3332;DHT22;1678;50.94845400;5.30809100;2022-10-04T08:58:00;13.50;99.90
3332;DHT22;1678;50.94845400;5.30809100;2022-10-04T09:00:44;13.60;99.90
3332;DHT22;1678;50.94845400;5.30809100;2022-10-04T09:03:55;13.70;99.90
3332;DHT22;1678;50.94845400;5.30809100;2022-10-04T09:06:37;13.80;99.90
3332;DHT22;1678;50.94845400;5.30809100;2022-10-04T09:09:55;13.90;99.90
3332;DHT22;1678;50.94845400;5.30809100;2022-10-04T09:12:39;14.00;99.90
3332;DHT22;1678;50.94845400;5.30809100;2022-10-04T09:15:21;14.10;99.90
3332;DHT22;1678;50.94845400;5.30809100;2022-10-04T09:18:05;14.20;99.90
3332;DHT22;1678;50.94845400;5.30809100;2022-10-04T09:27:29;14.60;99.90
3332;DHT22;1678;50.94845400;5.30809100;2022-10-04T09:30:21;14.80;99.90
3332;DHT22;1678;50.94845400;5.30809100;2022-10-04T09:33:14;14.90;99.90
3332;DHT22;1678;50.94845400;5.30809100;2022-10-04T09:36:19;15.10;99.90
3332;DHT22;1678;50.94845400;5.30809100;2022-10-04T09:45:29;15.40;94.90
3332;DHT22;1678;50.94845400;5.30809100;2022-10-04T09:48:27;15.40;94.50
3332;DHT22;1678;50.94845400;5.30809100;2022-10-04T09:51:20;15.40;94.20
3332;DHT22;1678;50.94845400;5.30809100;2022-10-04T09:57:13;15.60;95.50
3332;DHT22;1678;50.94845400;5.30809100;2022-10-04T09:59:51;15.80;96.50
3332;DHT22;1678;50.94845400;5.30809100;2022-10-04T10:08:25;16.00;93.80
3332;DHT22;1678;50.94845400;5.30809100;2022-10-04T10:11:00;16.20;89.90
3332;DHT22;1678;50.94845400;5.30809100;2022-10-04T10:14:16;16.10;90.60
3332;DHT22;1678;50.94845400;5.30809100;2022-10-04T10:16:59;16.10;92.00
3332;DHT22;1678;50.94845400;5.30809100;2022-10-04T10:22:56;16.20;89.00
3332;DHT22;1678;50.94845400;5.30809100;2022-10-04T10:25:39;16.20;88.90
3332;DHT22;1678;50.94845400;5.30809100;2022-10-04T10:28:24;16.30;92.30
3332;DHT22;1678;50.94845400;5.30809100;2022-10-04T10:31:09;16.60;90.00
3332;DHT22;1678;50.94845400;5.30809100;2022-10-04T10:34:20;16.80;90.60
3332;DHT22;1678;50.94845400;5.30809100;2022-10-04T10:37:05;16.80;87.50
3332;DHT22;1678;50.94845400;5.30809100;2022-10-04T10:43:10;17.10;84.20
3332;DHT22;1678;50.94845400;5.30809100;2022-10-04T10:45:57;17.00;80.60
3332;DHT22;1678;50.94845400;5.30809100;2022-10-04T10:48:46;17.10;81.10
3332;DHT22;1678;50.94845400;5.30809100;2022-10-04T10:51:25;17.20;83.00
3332;DHT22;1678;50.94845400;5.30809100;2022-10-04T10:54:19;17.00;79.80
3332;DHT22;1678;50.94845400;5.30809100;2022-10-04T10:57:02;17.10;80.90
3332;DHT22;1678;50.94845400;5.30809100;2022-10-04T11:00:07;16.90;81.00
3332;DHT22;1678;50.94845400;5.30809100;2022-10-04T11:03:18;16.90;83.60
3332;DHT22;1678;50.94845400;5.30809100;2022-10-04T11:06:28;17.10;81.10
3332;DHT22;1678;50.94845400;5.30809100;2022-10-04T11:09:33;17.20;79.60
3332;DHT22;1678;50.94845400;5.30809100;2022-10-04T11:12:34;17.30;77.90
3332;DHT22;1678;50.94845400;5.30809100;2022-10-04T11:15:41;17.10;76.80
3332;DHT22;1678;50.94845400;5.30809100;2022-10-04T11:21:33;17.50;78.50
3332;DHT22;1678;50.94845400;5.30809100;2022-10-04T11:24:27;17.70;73.40
3332;DHT22;1678;50.94845400;5.30809100;2022-10-04T11:27:25;17.60;69.90
3332;DHT22;1678;50.94845400;5.30809100;2022-10-04T11:30:08;17.60;72.40
3332;DHT22;1678;50.94845400;5.30809100;2022-10-04T11:36:28;17.80;70.10
3332;DHT22;1678;50.94845400;5.30809100;2022-10-04T11:39:17;17.80;70.20
3332;DHT22;1678;50.94845400;5.30809100;2022-10-04T11:41:53;17.70;70.30
3332;DHT22;1678;50.94845400;5.30809100;2022-10-04T11:44:47;17.90;73.10
3332;DHT22;1678;50.94845400;5.30809100;2022-10-04T11:47:32;18.00;72.80
3332;DHT22;1678;50.94845400;5.30809100;2022-10-04T11:50:16;18.00;69.90
3332;DHT22;1678;50.94845400;5.30809100;2022-10-04T11:56:25;17.60;72.90
3332;DHT22;1678;50.94845400;5.30809100;2022-10-04T11:59:17;17.80;74.80
3332;DHT22;1678;50.94845400;5.30809100;2022-10-04T12:02:15;18.00;69.20
3332;DHT22;1678;50.94845400;5.30809100;2022-10-04T12:05:02;18.10;72.70
3332;DHT22;1678;50.94845400;5.30809100;2022-10-04T12:07:44;18.00;72.30
3332;DHT22;1678;50.94845400;5.30809100;2022-10-04T12:10:22;18.20;71.60
3332;DHT22;1678;50.94845400;5.30809100;2022-10-04T12:13:24;18.30;74.40
3332;DHT22;1678;50.94845400;5.30809100;2022-10-04T12:16:11;18.50;71.20
3332;DHT22;1678;50.94845400;5.30809100;2022-10-04T12:24:55;18.40;71.40
3332;DHT22;1678;50.94845400;5.30809100;2022-10-04T12:27:44;18.30;69.60
3332;DHT22;1678;50.94845400;5.30809100;2022-10-04T12:30:24;18.30;71.50
3332;DHT22;1678;50.94845400;5.30809100;2022-10-04T12:33:03;18.40;68.70
3332;DHT22;1678;50.94845400;5.30809100;2022-10-04T12:35:52;18.40;74.20
3332;DHT22;1678;50.94845400;5.30809100;2022-10-04T12:38:44;18.70;73.00
3332;DHT22;1678;50.94845400;5.30809100;2022-10-04T12:41:26;18.50;69.70
3332;DHT22;1678;50.94845400;5.30809100;2022-10-04T12:44:04;18.50;68.70
3332;DHT22;1678;50.94845400;5.30809100;2022-10-04T12:46:45;18.60;68.10
3332;DHT22;1678;50.94845400;5.30809100;2022-10-04T12:49:27;18.60;68.40
3332;DHT22;1678;50.94845400;5.30809100;2022-10-04T12:52:06;18.80;68.30
3332;DHT22;1678;50.94845400;5.30809100;2022-10-04T12:54:41;18.80;65.40
3332;DHT22;1678;50.94845400;5.30809100;2022-10-04T12:57:23;18.80;68.20
3332;DHT22;1678;50.94845400;5.30809100;2022-10-04T13:00:02;18.90;67.80
3332;DHT22;1678;50.94845400;5.30809100;2022-10-04T13:02:52;18.90;66.60
3332;DHT22;1678;50.94845400;5.30809100;2022-10-04T13:05:30;19.10;70.30
3332;DHT22;1678;50.94845400;5.30809100;2022-10-04T13:08:19;19.20;68.80
3332;DHT22;1678;50.94845400;5.30809100;2022-10-04T13:11:22;19.20;67.30
3332;DHT22;1678;50.94845400;5.30809100;2022-10-04T13:14:23;19.10;68.80
3332;DHT22;1678;50.94845400;5.30809100;2022-10-04T13:16:59;19.20;73.10
3332;DHT22;1678;50.94845400;5.30809100;2022-10-04T13:19:59;19.50;70.00
3332;DHT22;1678;50.94845400;5.30809100;2022-10-04T13:22:40;19.70;69.10
3332;DHT22;1678;50.94845400;5.30809100;2022-10-04T13:28:19;19.70;67.70
3332;DHT22;1678;50.94845400;5.30809100;2022-10-04T13:30:55;19.90;65.10
3332;DHT22;1678;50.94845400;5.30809100;2022-10-04T13:33:35;19.80;63.90
3332;DHT22;1678;50.94845400;5.30809100;2022-10-04T13:36:12;19.90;66.50
3332;DHT22;1678;50.94845400;5.30809100;2022-10-04T13:39:03;19.90;66.20
3332;DHT22;1678;50.94845400;5.30809100;2022-10-04T13:41:46;19.90;64.60
3332;DHT22;1678;50.94845400;5.30809100;2022-10-04T13:47:46;19.90;61.50
3332;DHT22;1678;50.94845400;5.30809100;2022-10-04T13:50:32;19.90;62.10
3332;DHT22;1678;50.94845400;5.30809100;2022-10-04T13:53:14;19.90;63.50
3332;DHT22;1678;50.94845400;5.30809100;2022-10-04T13:56:14;20.00;62.40
3332;DHT22;1678;50.94845400;5.30809100;2022-10-04T13:59:14;19.70;61.00
3332;DHT22;1678;50.94845400;5.30809100;2022-10-04T14:02:11;19.80;60.80
3332;DHT22;1678;50.94845400;5.30809100;2022-10-04T14:08:13;19.70;55.80
3332;DHT22;1678;50.94845400;5.30809100;2022-10-04T14:11:04;19.70;55.50
3332;DHT22;1678;50.94845400;5.30809100;2022-10-04T14:14:06;19.90;55.10
3332;DHT22;1678;50.94845400;5.30809100;2022-10-04T14:17:07;20.00;58.30
3332;DHT22;1678;50.94845400;5.30809100;2022-10-04T14:20:07;20.10;56.90
3332;DHT22;1678;50.94845400;5.30809100;2022-10-04T14:23:08;20.40;55.90
3332;DHT22;1678;50.94845400;5.30809100;2022-10-04T14:29:24;20.30;55.70
3332;DHT22;1678;50.94845400;5.30809100;2022-10-04T14:35:00;21.50;52.90
3332;DHT22;1678;50.94845400;5.30809100;2022-10-04T14:38:06;22.10;48.50
3332;DHT22;1678;50.94845400;5.30809100;2022-10-04T14:40:49;22.10;50.40
3332;DHT22;1678;50.94845400;5.30809100;2022-10-04T14:44:00;22.40;48.10
3332;DHT22;1678;50.94845400;5.30809100;2022-10-04T14:46:42;22.50;48.20
3332;DHT22;1678;50.94845400;5.30809100;2022-10-04T14:49:20;22.60;48.10
3332;DHT22;1678;50.94845400;5.30809100;2022-10-04T14:52:04;22.80;49.10
3332;DHT22;1678;50.94845400;5.30809100;2022-10-04T14:54:42;22.50;48.60
3332;DHT22;1678;50.94845400;5.30809100;2022-10-04T14:57:16;21.90;50.70
3332;DHT22;1678;50.94845400;5.30809100;2022-10-04T15:00:03;21.90;51.10
3332;DHT22;1678;50.94845400;5.30809100;2022-10-04T15:02:57;21.60;51.10
3332;DHT22;1678;50.94845400;5.30809100;2022-10-04T15:05:42;21.30;47.60
3332;DHT22;1678;50.94845400;5.30809100;2022-10-04T15:11:35;21.40;45.50
3332;DHT22;1678;50.94845400;5.30809100;2022-10-04T15:14:26;21.70;45.90
3332;DHT22;1678;50.94845400;5.30809100;2022-10-04T15:17:00;21.90;47.80
3332;DHT22;1678;50.94845400;5.30809100;2022-10-04T15:19:30;22.00;43.70
3332;DHT22;1678;50.94845400;5.30809100;2022-10-04T15:22:11;21.90;44.80
3332;DHT22;1678;50.94845400;5.30809100;2022-10-04T15:24:47;22.00;44.40
3332;DHT22;1678;50.94845400;5.30809100;2022-10-04T15:27:34;22.10;47.20
3332;DHT22;1678;50.94845400;5.30809100;2022-10-04T15:30:22;21.50;47.90
3332;DHT22;1678;50.94845400;5.30809100;2022-10-04T15:33:06;21.10;49.80
3332;DHT22;1678;50.94845400;5.30809100;2022-10-04T15:35:41;20.40;52.10
3332;DHT22;1678;50.94845400;5.30809100;2022-10-04T15:38:23;20.30;54.50
3332;DHT22;1678;50.94845400;5.30809100;2022-10-04T15:41:00;20.30;54.10
3332;DHT22;1678;50.94845400;5.30809100;2022-10-04T15:43:40;20.40;53.40
3332;DHT22;1678;50.94845400;5.30809100;2022-10-04T15:46:31;21.00;53.00
3332;DHT22;1678;50.94845400;5.30809100;2022-10-04T15:49:18;21.20;51.80
3332;DHT22;1678;50.94845400;5.30809100;2022-10-04T15:52:12;20.40;54.10
3332;DHT22;1678;50.94845400;5.30809100;2022-10-04T15:54:59;20.00;55.60
3332;DHT22;1678;50.94845400;5.30809100;2022-10-04T15:57:36;19.70;58.10
3332;DHT22;1678;50.94845400;5.30809100;2022-10-04T16:00:21;19.50;59.70
3332;DHT22;1678;50.94845400;5.30809100;2022-10-04T16:03:11;19.30;61.60
3332;DHT22;1678;50.94845400;5.30809100;2022-10-04T16:05:47;19.10;62.00
3332;DHT22;1678;50.94845400;5.30809100;2022-10-04T16:08:36;19.10;62.80
3332;DHT22;1678;50.94845400;5.30809100;2022-10-04T16:11:21;19.00;64.00
3332;DHT22;1678;50.94845400;5.30809100;2022-10-04T16:14:19;18.90;65.00
3332;DHT22;1678;50.94845400;5.30809100;2022-10-04T16:25:46;18.50;72.00
3332;DHT22;1678;50.94845400;5.30809100;2022-10-04T16:28:25;18.40;73.70
3332;DHT22;1678;50.94845400;5.30809100;2022-10-04T16:31:21;18.30;73.60
3332;DHT22;1678;50.94845400;5.30809100;2022-10-04T16:33:55;18.20;76.70
3332;DHT22;1678;50.94845400;5.30809100;2022-10-04T16:36:26;18.20;75.80
3332;DHT22;1678;50.94845400;5.30809100;2022-10-04T16:38:59;18.10;79.60
3332;DHT22;1678;50.94845400;5.30809100;2022-10-04T16:41:56;18.00;80.70
3332;DHT22;1678;50.94845400;5.30809100;2022-10-04T16:44:33;17.80;81.50
3332;DHT22;1678;50.94845400;5.30809100;2022-10-04T16:47:17;17.70;84.00
3332;DHT22;1678;50.94845400;5.30809100;2022-10-04T16:49:48;17.70;84.50
3332;DHT22;1678;50.94845400;5.30809100;2022-10-04T16:55:44;17.40;87.70
3332;DHT22;1678;50.94845400;5.30809100;2022-10-04T16:58:52;17.30;86.60